Create Custom Reports and Graphics: Custom Report

Siberia 8700'

OV

8/18/22 7:45 PM (-07:00)
Updated Every 15 Minutes
Temp 61.1 °F   4.5
RH 42 %   31
Wet Bulb 48.2 °F   3.2
Dew Pt 37.8 °F   10.3
Wind Dir SSE | 163 °
Wind Spd 0.0 mph   0.0
Wind Gust 0.1 mph   0.0
WindChill 61.4 °F   4.0
Daily Min Temp 50.1 °F   5.7
Daily Max Temp 66.2 °F   6.0

Last 24 Hours

OV-Siberia 8700'

Hourly Data | America/Los_Angeles
as of 8/18/22 7:50 PM PDT
Date & Time Temp (°F) RH (%) Dew Pt (°F) Wet Bulb (°F) Wind Dir (°) Wind Spd (mph) Wind Gust (mph) WindChill (°F) Daily Min Temp (°F) Daily Max Temp (°F)
8/18/22 - 1900 63.4 39 37.9 49.1 SSE | 163 0.0 0.1 64.0 50.1 66.2
8/18/22 - 1800 65.6 39 39.9 50.8 SSE | 163 0.0 0.1 64.3 50.1 66.2
8/18/22 - 1700 65.3 39 39.4 50.5 SSE | 163 0.0 0.1 63.2 50.1 66.2
8/18/22 - 1600 62.7 44 40.3 49.9 SSE | 162 0.0 0.1 63.3 50.1 66.2
8/18/22 - 1500 62.7 42 39.4 49.5 SSE | 163 0.0 0.1 63.5 50.1 66.2
8/18/22 - 1400 63.4 43 40.7 50.3 SSE | 163 0.0 0.1 63.3 50.1 66.2
8/18/22 - 1300 60.9 47 40.8 49.4 SSE | 163 0.0 0.1 60.4 50.1 64.2
8/18/22 - 1200 61.6 48 41.9 50.2 SSE | 163 0.0 0.1 62.5 50.1 64.2
8/18/22 - 1100 62.8 50 43.7 51.5 SSE | 163 0.0 0.1 61.4 50.1 62.8
8/18/22 - 1000 60.7 45 39.1 48.6 SSE | 162 0.0 0.1 59.7 50.1 61.0
8/18/22 - 0900 59.0 52 41.3 48.9 SSE | 163 0.0 0.1 59.6 50.1 61.0
8/18/22 - 0800 59.3 49 40.3 48.5 SSE | 162 0.0 0.1 58.1 50.1 59.8
8/18/22 - 0700 56.2 57 41.3 47.7 SSE | 162 0.0 0.1 52.3 50.1 58.3
8/18/22 - 0600 50.7 85 46.5 48.2 SSE | 162 0.0 0.1 52.5 50.7 58.3
8/18/22 - 0500 52.8 76 45.3 48.4 SSE | 162 0.0 0.1 52.0 51.1 58.3
8/18/22 - 0400 52.5 77 45.5 48.4 SSE | 162 0.0 0.1 52.4 51.6 58.3
8/18/22 - 0300 53.0 80 46.9 49.3 SSE | 162 0.0 0.1 53.4 51.6 58.3
8/18/22 - 0200 54.2 73 45.6 49.1 SSE | 162 0.0 0.1 56.0 51.6 58.3
8/18/22 - 0100 56.6 62 43.6 49.1 SSE | 161 0.0 0.1 54.0 51.6 56.6
8/18/22 - 0000 52.5 77 45.5 48.4 SSE | 161 0.0 0.1 52.3 50.0 72.2
8/17/22 - 2300 50.9 86 46.9 48.5 SSE | 161 0.0 0.1 51.5 50.0 72.2
8/17/22 - 2200 53.8 72 44.9 48.6 SSE | 160 0.0 0.1 51.9 50.0 72.2
8/17/22 - 2100 51.5 96 50.3 50.7 SSE | 161 0.0 0.1 54.1 51.5 72.2
8/17/22 - 2000 55.2 79 48.8 51.3 SSE | 162 0.0 0.1 57.9 55.1 72.2
8/17/22 - 1900 59.8 60 45.8 51.4 SSE | 163 0.0 0.1 62.7 55.8 72.2
Max 65.6 96 50.3 51.5 - 0.0 0.1 64.3 55.8 72.2
Avg 57.9 61 43.3 49.5 - 0.0 0.1 57.8 - -
Min 50.7 39 37.9 47.7 - 0.0 0.1 51.5 50.0 56.6

Last 30 Days

OV-Siberia 8700'

Daily Data | America/Los_Angeles
as of 8/18/22 7:50 PM PDT
Date Daily Max Temp (°F) Time of Max Temp Daily Min Temp (°F) Time of Min Temp Wind Spd (mph) Daily Max Wind (mph) Time of Max Wind Max Wind Dir (°) Wet Bulb (°F) WetB Hrs <28F (hrs)
8/17/22 72.2 1019 50.0 2117 0.0 0.1 1511 SSE | 162 50.1 0.0
8/16/22 74.7 1413 61.3 0432 0.0 0.1 2052 SSE | 160 48.1 0.0
8/15/22 73.6 1526 57.9 0052 0.0 0.1 2021 SSE | 162 44.4 0.0
8/14/22 68.6 1532 53.0 0626 0.0 0.1 0408 SSE | 163 42.1 0.0
8/13/22 68.4 1516 51.8 0618 0.0 0.1 0140 SSE | 161 42.0 0.0
8/12/22 66.0 1428 49.1 0640 0.0 0.1 1746 SSE | 165 44.4 0.0
8/11/22 65.3 1720 50.8 0635 0.0 0.1 1243 SSE | 162 47.2 0.0
8/10/22 63.3 1455 50.0 0628 0.0 0.1 0142 SSE | 159 46.9 0.0
8/9/22 64.0 1343 50.9 2229 0.0 0.1 0357 SSE | 160 48.8 0.0
8/8/22 69.6 1259 57.7 0325 0.0 0.1 2211 SSE | 158 50.7 0.0
8/7/22 70.2 1536 55.7 0107 0.0 0.1 0214 SSE | 155 51.8 0.0
8/6/22 66.3 1529 49.2 0546 0.0 0.1 1659 SSE | 158 51.6 0.0
8/5/22 59.7 1328 49.5 0826 0.0 0.1 0841 SSE | 155 51.9 0.0
8/4/22 70.7 1539 58.4 0551 0.0 0.1 1908 SSE | 159 53.1 0.0
8/3/22 73.4 1531 54.1 0520 0.0 0.1 1350 SSE | 160 53.9 0.0
8/2/22 67.3 1532 52.3 0438 0.0 0.1 2156 SSE | 160 52.0 0.0
8/1/22 60.9 1454 52.7 0821 0.0 0.1 0611 SSE | 158 50.8 0.0
7/31/22 70.0 1208 56.0 2358 0.0 0.2 1326 SSE | 162 53.7 0.0
7/30/22 80.5 1318 62.8 1955 0.0 0.1 0024 SSE | 163 52.6 0.0
7/29/22 78.9 1552 64.3 0459 0.0 0.1 1758 SSE | 160 52.0 0.0
7/28/22 79.1 1351 61.5 0614 0.0 0.1 1655 SSE | 161 52.1 0.0
7/27/22 76.3 1523 61.4 0614 0.0 0.1 0844 SSE | 161 53.4 0.0
7/26/22 71.5 1745 59.6 0404 0.0 0.1 1620 SSE | 161 48.2 0.0
7/25/22 77.0 1458 60.2 2359 0.0 0.1 1843 SSE | 164 49.4 0.0
7/24/22 73.3 1229 57.6 0431 0.0 0.1 2029 SSE | 162 46.3 0.0
7/23/22 69.9 1712 56.0 0557 0.0 0.1 1402 SSE | 161 42.3 0.0
7/22/22 68.6 1511 53.1 0544 0.0 0.1 1106 SSE | 163 41.1 0.0
7/21/22 73.7 1151 55.8 2330 0.0 0.1 1759 SSE | 161 45.4 0.0
7/20/22 72.0 1549 57.1 0235 0.0 0.1 0720 SSE | 163 48.9 0.0
7/19/22 69.3 1706 56.2 0452 0.0 0.1 0755 SSE | 159 50.4 0.0
Max 80.5 - 64.3 - 0.0 0.2 - - 53.9 0.0
Avg - - - - 0.0 - - - 48.9 -
Min 59.7 - 49.1 - 0.0 0.1 - - 41.1 0.0
Calm: 1.0%
Calm: 0.0%